sensor_id;sensor_type;location;lat;lon;timestamp;temperature;humidity
52941;DHT22;62001;53.366;6.636;2022-07-11T00:02:08;15.40;99.90
52941;DHT22;62001;53.366;6.636;2022-07-11T00:04:35;15.40;99.90
52941;DHT22;62001;53.366;6.636;2022-07-11T00:07:02;15.30;99.90
52941;DHT22;62001;53.366;6.636;2022-07-11T00:09:28;15.30;99.90
52941;DHT22;62001;53.366;6.636;2022-07-11T00:11:55;15.20;99.90
52941;DHT22;62001;53.366;6.636;2022-07-11T00:14:21;15.20;99.90
52941;DHT22;62001;53.366;6.636;2022-07-11T00:16:48;15.20;99.90
52941;DHT22;62001;53.366;6.636;2022-07-11T00:19:14;15.20;99.90
52941;DHT22;62001;53.366;6.636;2022-07-11T00:21:40;15.20;99.90
52941;DHT22;62001;53.366;6.636;2022-07-11T00:24:06;15.20;99.90
52941;DHT22;62001;53.366;6.636;2022-07-11T00:26:33;15.20;99.90
52941;DHT22;62001;53.366;6.636;2022-07-11T00:28:59;15.20;99.90
52941;DHT22;62001;53.366;6.636;2022-07-11T00:31:25;15.20;99.90
52941;DHT22;62001;53.366;6.636;2022-07-11T00:33:51;15.20;99.90
52941;DHT22;62001;53.366;6.636;2022-07-11T00:36:17;15.20;99.90
52941;DHT22;62001;53.366;6.636;2022-07-11T00:38:43;15.20;99.90
52941;DHT22;62001;53.366;6.636;2022-07-11T00:41:09;15.20;99.90
52941;DHT22;62001;53.366;6.636;2022-07-11T00:43:38;15.20;99.90
52941;DHT22;62001;53.366;6.636;2022-07-11T00:46:05;15.20;99.90
52941;DHT22;62001;53.366;6.636;2022-07-11T00:48:32;15.20;99.90
52941;DHT22;62001;53.366;6.636;2022-07-11T00:50:58;15.20;99.90
52941;DHT22;62001;53.366;6.636;2022-07-11T00:53:24;15.30;99.90
52941;DHT22;62001;53.366;6.636;2022-07-11T00:55:54;15.30;99.90
52941;DHT22;62001;53.366;6.636;2022-07-11T00:58:20;15.20;99.90
52941;DHT22;62001;53.366;6.636;2022-07-11T01:00:46;15.30;99.90
52941;DHT22;62001;53.366;6.636;2022-07-11T01:03:12;15.20;99.90
52941;DHT22;62001;53.366;6.636;2022-07-11T01:05:37;15.30;99.90
52941;DHT22;62001;53.366;6.636;2022-07-11T01:08:04;15.30;99.90
52941;DHT22;62001;53.366;6.636;2022-07-11T01:10:33;15.30;99.90
52941;DHT22;62001;53.366;6.636;2022-07-11T01:12:59;15.30;99.90
52941;DHT22;62001;53.366;6.636;2022-07-11T01:15:25;15.20;99.90
52941;DHT22;62001;53.366;6.636;2022-07-11T01:17:51;15.20;99.90
52941;DHT22;62001;53.366;6.636;2022-07-11T01:20:21;15.20;99.90
52941;DHT22;62001;53.366;6.636;2022-07-11T01:22:51;15.20;99.90
52941;DHT22;62001;53.366;6.636;2022-07-11T01:25:19;15.30;99.90
52941;DHT22;62001;53.366;6.636;2022-07-11T01:28:01;15.30;99.90
52941;DHT22;62001;53.366;6.636;2022-07-11T01:30:29;15.30;99.90
52941;DHT22;62001;53.366;6.636;2022-07-11T01:32:56;15.30;99.90
52941;DHT22;62001;53.366;6.636;2022-07-11T01:35:22;15.30;99.90
52941;DHT22;62001;53.366;6.636;2022-07-11T01:37:48;15.30;99.90
52941;DHT22;62001;53.366;6.636;2022-07-11T01:40:15;15.30;99.90
52941;DHT22;62001;53.366;6.636;2022-07-11T01:42:41;15.30;99.90
52941;DHT22;62001;53.366;6.636;2022-07-11T01:45:12;15.30;99.90
52941;DHT22;62001;53.366;6.636;2022-07-11T01:47:38;15.30;99.90
52941;DHT22;62001;53.366;6.636;2022-07-11T01:50:05;15.30;99.90
52941;DHT22;62001;53.366;6.636;2022-07-11T01:52:31;15.30;99.90
52941;DHT22;62001;53.366;6.636;2022-07-11T01:54:57;15.30;99.90
52941;DHT22;62001;53.366;6.636;2022-07-11T01:57:23;15.30;99.90
52941;DHT22;62001;53.366;6.636;2022-07-11T01:59:49;15.30;99.90
52941;DHT22;62001;53.366;6.636;2022-07-11T02:02:15;15.30;99.90
52941;DHT22;62001;53.366;6.636;2022-07-11T02:04:41;15.30;99.90
52941;DHT22;62001;53.366;6.636;2022-07-11T02:07:08;15.30;99.90
52941;DHT22;62001;53.366;6.636;2022-07-11T02:09:37;15.30;99.90
52941;DHT22;62001;53.366;6.636;2022-07-11T02:12:05;15.40;99.90
52941;DHT22;62001;53.366;6.636;2022-07-11T02:14:31;15.30;99.90
52941;DHT22;62001;53.366;6.636;2022-07-11T02:16:57;15.40;99.90
52941;DHT22;62001;53.366;6.636;2022-07-11T02:19:23;15.30;99.90
52941;DHT22;62001;53.366;6.636;2022-07-11T02:21:48;15.30;99.90
52941;DHT22;62001;53.366;6.636;2022-07-11T02:24:14;15.30;99.90
52941;DHT22;62001;53.366;6.636;2022-07-11T02:26:40;15.30;99.90
52941;DHT22;62001;53.366;6.636;2022-07-11T02:29:06;15.30;99.90
52941;DHT22;62001;53.366;6.636;2022-07-11T02:31:31;15.30;99.90
52941;DHT22;62001;53.366;6.636;2022-07-11T02:33:57;15.30;99.90
52941;DHT22;62001;53.366;6.636;2022-07-11T02:36:23;15.30;99.90
52941;DHT22;62001;53.366;6.636;2022-07-11T02:38:49;15.30;99.90
52941;DHT22;62001;53.366;6.636;2022-07-11T02:41:16;15.40;99.90
52941;DHT22;62001;53.366;6.636;2022-07-11T02:43:44;15.30;99.90
52941;DHT22;62001;53.366;6.636;2022-07-11T02:46:09;15.30;99.90
52941;DHT22;62001;53.366;6.636;2022-07-11T02:48:35;15.30;99.90
52941;DHT22;62001;53.366;6.636;2022-07-11T02:51:01;15.30;99.90
52941;DHT22;62001;53.366;6.636;2022-07-11T02:53:27;15.30;99.90
52941;DHT22;62001;53.366;6.636;2022-07-11T02:55:52;15.30;99.90
52941;DHT22;62001;53.366;6.636;2022-07-11T02:58:18;15.30;99.90
52941;DHT22;62001;53.366;6.636;2022-07-11T03:00:44;15.30;99.90
52941;DHT22;62001;53.366;6.636;2022-07-11T03:03:10;15.30;99.90
52941;DHT22;62001;53.366;6.636;2022-07-11T03:05:35;15.30;99.90
52941;DHT22;62001;53.366;6.636;2022-07-11T03:08:01;15.30;99.90
52941;DHT22;62001;53.366;6.636;2022-07-11T03:10:27;15.30;99.90
52941;DHT22;62001;53.366;6.636;2022-07-11T03:12:53;15.30;99.90
52941;DHT22;62001;53.366;6.636;2022-07-11T03:15:18;15.30;99.90
52941;DHT22;62001;53.366;6.636;2022-07-11T03:17:45;15.30;99.90
52941;DHT22;62001;53.366;6.636;2022-07-11T03:20:12;15.30;99.90
52941;DHT22;62001;53.366;6.636;2022-07-11T03:22:38;15.30;99.90
52941;DHT22;62001;53.366;6.636;2022-07-11T03:25:04;15.30;99.90
52941;DHT22;62001;53.366;6.636;2022-07-11T03:27:34;15.30;99.90
52941;DHT22;62001;53.366;6.636;2022-07-11T03:30:00;15.30;99.90
52941;DHT22;62001;53.366;6.636;2022-07-11T03:32:26;15.30;99.90
52941;DHT22;62001;53.366;6.636;2022-07-11T03:34:51;15.30;99.90
52941;DHT22;62001;53.366;6.636;2022-07-11T03:37:36;15.40;99.90
52941;DHT22;62001;53.366;6.636;2022-07-11T03:40:02;15.40;99.90
52941;DHT22;62001;53.366;6.636;2022-07-11T03:42:28;15.40;99.90
52941;DHT22;62001;53.366;6.636;2022-07-11T03:44:54;15.30;99.90
52941;DHT22;62001;53.366;6.636;2022-07-11T03:47:20;15.30;99.90
52941;DHT22;62001;53.366;6.636;2022-07-11T03:49:46;15.30;99.90
52941;DHT22;62001;53.366;6.636;2022-07-11T03:52:13;15.20;99.90
52941;DHT22;62001;53.366;6.636;2022-07-11T03:54:39;15.20;99.90
52941;DHT22;62001;53.366;6.636;2022-07-11T03:57:05;15.20;99.90
52941;DHT22;62001;53.366;6.636;2022-07-11T03:59:31;15.20;99.90
52941;DHT22;62001;53.366;6.636;2022-07-11T04:01:57;15.20;99.90
52941;DHT22;62001;53.366;6.636;2022-07-11T04:04:23;15.30;99.90
52941;DHT22;62001;53.366;6.636;2022-07-11T04:06:48;15.30;99.90
52941;DHT22;62001;53.366;6.636;2022-07-11T04:09:14;15.30;99.90
52941;DHT22;62001;53.366;6.636;2022-07-11T04:11:40;15.30;99.90
52941;DHT22;62001;53.366;6.636;2022-07-11T04:14:06;15.30;99.90
52941;DHT22;62001;53.366;6.636;2022-07-11T04:16:32;15.30;99.90
52941;DHT22;62001;53.366;6.636;2022-07-11T04:18:57;15.30;99.90
52941;DHT22;62001;53.366;6.636;2022-07-11T04:21:23;15.30;99.90
52941;DHT22;62001;53.366;6.636;2022-07-11T04:23:49;15.30;99.90
52941;DHT22;62001;53.366;6.636;2022-07-11T04:26:15;15.30;99.90
52941;DHT22;62001;53.366;6.636;2022-07-11T04:28:41;15.30;99.90
52941;DHT22;62001;53.366;6.636;2022-07-11T04:31:07;15.30;99.90
52941;DHT22;62001;53.366;6.636;2022-07-11T04:33:33;15.40;99.90
52941;DHT22;62001;53.366;6.636;2022-07-11T04:35:58;15.40;99.90
52941;DHT22;62001;53.366;6.636;2022-07-11T04:38:24;15.40;99.90
52941;DHT22;62001;53.366;6.636;2022-07-11T04:40:50;15.40;99.90
52941;DHT22;62001;53.366;6.636;2022-07-11T04:43:17;15.40;99.90
52941;DHT22;62001;53.366;6.636;2022-07-11T04:45:43;15.40;99.90
52941;DHT22;62001;53.366;6.636;2022-07-11T04:48:09;15.40;99.90
52941;DHT22;62001;53.366;6.636;2022-07-11T04:50:34;15.40;99.90
52941;DHT22;62001;53.366;6.636;2022-07-11T04:53:00;15.40;99.90
52941;DHT22;62001;53.366;6.636;2022-07-11T04:55:26;15.50;99.90
52941;DHT22;62001;53.366;6.636;2022-07-11T04:57:52;15.50;99.90
52941;DHT22;62001;53.366;6.636;2022-07-11T05:00:18;15.50;99.90
52941;DHT22;62001;53.366;6.636;2022-07-11T05:02:44;15.50;99.90
52941;DHT22;62001;53.366;6.636;2022-07-11T05:05:10;15.60;99.90
52941;DHT22;62001;53.366;6.636;2022-07-11T05:07:36;15.60;99.90
52941;DHT22;62001;53.366;6.636;2022-07-11T05:10:03;15.60;99.90
52941;DHT22;62001;53.366;6.636;2022-07-11T05:12:29;15.70;99.90
52941;DHT22;62001;53.366;6.636;2022-07-11T05:14:55;15.70;99.90
52941;DHT22;62001;53.366;6.636;2022-07-11T05:17:21;15.80;99.90
52941;DHT22;62001;53.366;6.636;2022-07-11T05:19:47;15.70;99.90
52941;DHT22;62001;53.366;6.636;2022-07-11T05:22:12;15.80;99.90
52941;DHT22;62001;53.366;6.636;2022-07-11T05:24:38;15.80;99.90
52941;DHT22;62001;53.366;6.636;2022-07-11T05:27:04;15.80;99.90
52941;DHT22;62001;53.366;6.636;2022-07-11T05:29:30;15.70;99.90
52941;DHT22;62001;53.366;6.636;2022-07-11T05:31:56;15.70;99.90
52941;DHT22;62001;53.366;6.636;2022-07-11T05:34:21;15.80;99.90
52941;DHT22;62001;53.366;6.636;2022-07-11T05:36:47;15.80;99.90
52941;DHT22;62001;53.366;6.636;2022-07-11T05:39:13;16.10;99.90
52941;DHT22;62001;53.366;6.636;2022-07-11T05:41:40;16.40;99.90
52941;DHT22;62001;53.366;6.636;2022-07-11T05:44:06;16.60;99.90
52941;DHT22;62001;53.366;6.636;2022-07-11T05:46:32;16.60;99.90
52941;DHT22;62001;53.366;6.636;2022-07-11T05:48:57;16.60;99.90
52941;DHT22;62001;53.366;6.636;2022-07-11T05:51:23;16.60;99.90
52941;DHT22;62001;53.366;6.636;2022-07-11T05:53:49;16.70;99.90
52941;DHT22;62001;53.366;6.636;2022-07-11T05:56:15;17.20;99.90
52941;DHT22;62001;53.366;6.636;2022-07-11T05:58:40;17.70;99.90
52941;DHT22;62001;53.366;6.636;2022-07-11T06:01:06;17.80;99.90
52941;DHT22;62001;53.366;6.636;2022-07-11T06:03:33;17.70;99.90
52941;DHT22;62001;53.366;6.636;2022-07-11T06:06:00;17.50;99.90
52941;DHT22;62001;53.366;6.636;2022-07-11T06:08:30;17.40;99.90
52941;DHT22;62001;53.366;6.636;2022-07-11T06:11:12;17.20;99.90
52941;DHT22;62001;53.366;6.636;2022-07-11T06:13:39;17.10;99.90
52941;DHT22;62001;53.366;6.636;2022-07-11T06:16:06;17.10;99.90
52941;DHT22;62001;53.366;6.636;2022-07-11T06:18:33;17.00;99.90
52941;DHT22;62001;53.366;6.636;2022-07-11T06:20:59;17.10;99.90
52941;DHT22;62001;53.366;6.636;2022-07-11T06:23:25;17.10;99.90
52941;DHT22;62001;53.366;6.636;2022-07-11T06:25:51;17.20;99.90
52941;DHT22;62001;53.366;6.636;2022-07-11T06:28:17;17.20;99.90
52941;DHT22;62001;53.366;6.636;2022-07-11T06:30:42;17.30;99.90
52941;DHT22;62001;53.366;6.636;2022-07-11T06:33:08;17.50;99.90
52941;DHT22;62001;53.366;6.636;2022-07-11T06:35:34;17.70;99.90
52941;DHT22;62001;53.366;6.636;2022-07-11T06:38:00;18.00;99.90
52941;DHT22;62001;53.366;6.636;2022-07-11T06:40:26;18.10;99.90
52941;DHT22;62001;53.366;6.636;2022-07-11T06:42:52;18.00;99.90
52941;DHT22;62001;53.366;6.636;2022-07-11T06:45:18;18.00;99.90
52941;DHT22;62001;53.366;6.636;2022-07-11T06:47:43;18.10;99.90
52941;DHT22;62001;53.366;6.636;2022-07-11T06:50:09;18.10;99.90
52941;DHT22;62001;53.366;6.636;2022-07-11T06:52:35;18.00;99.90
52941;DHT22;62001;53.366;6.636;2022-07-11T06:55:02;18.00;99.90
52941;DHT22;62001;53.366;6.636;2022-07-11T06:57:27;17.90;99.90
52941;DHT22;62001;53.366;6.636;2022-07-11T06:59:53;17.90;99.90
52941;DHT22;62001;53.366;6.636;2022-07-11T07:02:19;17.80;99.90
52941;DHT22;62001;53.366;6.636;2022-07-11T07:04:45;17.70;99.90
52941;DHT22;62001;53.366;6.636;2022-07-11T07:07:11;17.70;99.90
52941;DHT22;62001;53.366;6.636;2022-07-11T07:09:37;17.80;99.90
52941;DHT22;62001;53.366;6.636;2022-07-11T07:12:03;17.90;99.90
52941;DHT22;62001;53.366;6.636;2022-07-11T07:14:28;17.80;99.90
52941;DHT22;62001;53.366;6.636;2022-07-11T07:16:54;17.90;99.90
52941;DHT22;62001;53.366;6.636;2022-07-11T07:19:20;17.80;99.90
52941;DHT22;62001;53.366;6.636;2022-07-11T07:21:46;17.80;99.90
52941;DHT22;62001;53.366;6.636;2022-07-11T07:24:13;17.70;99.90
52941;DHT22;62001;53.366;6.636;2022-07-11T07:26:39;17.70;99.90
52941;DHT22;62001;53.366;6.636;2022-07-11T07:29:04;17.80;99.90
52941;DHT22;62001;53.366;6.636;2022-07-11T07:31:30;17.80;99.90
52941;DHT22;62001;53.366;6.636;2022-07-11T07:33:56;17.90;99.90
52941;DHT22;62001;53.366;6.636;2022-07-11T07:36:22;17.90;99.90
52941;DHT22;62001;53.366;6.636;2022-07-11T07:38:48;18.00;99.90
52941;DHT22;62001;53.366;6.636;2022-07-11T07:41:15;18.10;99.90
52941;DHT22;62001;53.366;6.636;2022-07-11T07:43:41;18.50;99.90
52941;DHT22;62001;53.366;6.636;2022-07-11T07:46:07;18.50;99.90
52941;DHT22;62001;53.366;6.636;2022-07-11T07:48:39;18.50;99.90
52941;DHT22;62001;53.366;6.636;2022-07-11T07:51:05;18.50;99.90
52941;DHT22;62001;53.366;6.636;2022-07-11T07:53:31;18.70;99.90
52941;DHT22;62001;53.366;6.636;2022-07-11T07:55:56;18.80;99.90
52941;DHT22;62001;53.366;6.636;2022-07-11T07:58:22;18.70;99.90
52941;DHT22;62001;53.366;6.636;2022-07-11T08:00:48;18.60;99.90
52941;DHT22;62001;53.366;6.636;2022-07-11T08:03:32;18.50;99.90
52941;DHT22;62001;53.366;6.636;2022-07-11T08:05:58;18.40;99.90
